Time,TemperatureF,DewpointF,PressureIn,WindDirection,WindDirectionDegrees,WindSpeedMPH,WindSpeedGustMPH,Humidity,HourlyPrecipIn,Conditions,Clouds,dailyrainin,SoftwareType,DateUTC
2013-11-01 00:03:00,37.4,28.2,26.90,West,270,1.2,0.0,69,0.00,CLR,,0.00,WeatherDisplay:10.37,2013-11-01 05:03:00,
2013-11-01 00:09:00,37.4,28.5,26.90,NE,45,0.0,0.0,70,0.00,CLR,,0.00,WeatherDisplay:10.37,2013-11-01 05:09:00,
2013-11-01 00:24:00,38.1,29.5,26.90,North,0,0.0,0.0,71,0.00,CLR,,0.00,WeatherDisplay:10.37,2013-11-01 05:24:00,
2013-11-01 00:30:00,38.8,30.6,26.90,NW,315,2.3,2.3,72,0.00,CLR,,0.00,WeatherDisplay:10.37,2013-11-01 05:30:00,
2013-11-01 00:37:00,40.1,31.4,26.91,NW,315,2.3,2.3,71,0.00,CLR,,0.00,WeatherDisplay:10.37,2013-11-01 05:37:00,
2013-11-01 00:52:00,41.4,31.9,26.91,NW,315,4.6,4.6,69,0.00,CLR,,0.00,WeatherDisplay:10.37,2013-11-01 05:52:00,
2013-11-01 00:59:00,42.3,32.4,26.92,SE,135,2.3,2.3,68,0.00,CLR,,0.00,WeatherDisplay:10.37,2013-11-01 05:59:00,
2013-11-01 01:07:00,43.2,32.6,26.91,NW,315,2.3,2.3,66,0.00,CLR,,0.00,WeatherDisplay:10.37,2013-11-01 06:07:00,
2013-11-01 01:17:00,43.7,32.3,26.91,North,0,3.5,3.5,64,0.00,CLR,,0.00,WeatherDisplay:10.37,2013-11-01 06:17:00,
2013-11-01 01:25:00,43.9,32.5,27.30,NNW,327,1.0,3.0,64,0.00,CLR,CLR,0.00,WeatherDisplay:10.37,2013-11-01 06:25:00,
2013-11-01 01:32:00,44.1,32.7,26.92,West,270,3.5,3.5,64,0.00,CLR,,0.00,WeatherDisplay:10.37,2013-11-01 06:32:00,
2013-11-01 01:58:00,44.8,32.5,26.93,SW,225,5.8,5.8,62,0.00,CLR,,0.00,WeatherDisplay:10.37,2013-11-01 06:58:00,
2013-11-01 02:12:00,45.5,33.2,26.93,North,0,5.8,5.8,62,0.00,CLR,,0.00,WeatherDisplay:10.37,2013-11-01 07:12:00,
2013-11-01 02:27:00,46.0,33.3,26.93,NW,315,3.5,3.5,61,0.00,CLR,,0.00,WeatherDisplay:10.37,2013-11-01 07:27:00,
2013-11-01 02:44:00,46.0,33.7,26.94,NW,315,2.3,2.3,62,0.00,CLR,,0.00,WeatherDisplay:10.37,2013-11-01 07:44:00,
2013-11-01 02:53:00,45.9,34.0,26.94,NW,315,4.6,4.6,63,0.00,CLR,,0.00,WeatherDisplay:10.37,2013-11-01 07:53:00,
2013-11-01 03:00:00,45.9,33.6,26.94,NW,315,2.3,2.3,62,0.00,CLR,,0.00,WeatherDisplay:10.37,2013-11-01 08:00:00,
2013-11-01 03:07:00,45.9,33.6,26.94,NW,315,2.3,2.3,62,0.00,CLR,,0.00,WeatherDisplay:10.37,2013-11-01 08:07:00,
2013-11-01 03:14:00,45.9,34.4,26.94,NW,315,2.3,2.3,64,0.00,CLR,,0.00,WeatherDisplay:10.37,2013-11-01 08:14:00,
2013-11-01 03:25:00,46.5,35.4,27.30,NW,317,2.0,5.0,65,0.00,CLR,CLR,0.00,WeatherDisplay:10.37,2013-11-01 08:25:00,
2013-11-01 03:34:00,46.9,36.2,26.95,NW,315,5.8,5.8,66,0.00,CLR,,0.00,WeatherDisplay:10.37,2013-11-01 08:34:00,
2013-11-01 03:45:00,48.4,37.2,26.95,WNW,292,10.4,10.4,65,0.00,CLR,,0.00,WeatherDisplay:10.37,2013-11-01 08:45:00,
2013-11-01 03:51:00,50.0,37.9,26.95,NW,315,8.1,8.1,63,0.00,CLR,,0.00,WeatherDisplay:10.37,2013-11-01 08:51:00,
2013-11-01 04:01:00,50.7,38.2,26.95,NW,315,9.2,9.2,62,0.00,CLR,,0.00,WeatherDisplay:10.37,2013-11-01 09:01:00,
2013-11-01 04:11:00,50.5,37.6,26.95,West,270,5.8,5.8,61,0.00,CLR,,0.00,WeatherDisplay:10.37,2013-11-01 09:11:00,
2013-11-01 04:19:00,50.0,37.5,26.95,NW,315,10.4,10.4,62,0.00,CLR,,0.00,WeatherDisplay:10.37,2013-11-01 09:19:00,
2013-11-01 04:27:00,49.6,38.0,26.95,North,0,6.9,6.9,64,0.00,CLR,,0.00,WeatherDisplay:10.37,2013-11-01 09:27:00,
2013-11-01 04:34:00,49.3,37.6,26.95,NW,315,5.8,5.8,64,0.00,CLR,,0.00,WeatherDisplay:10.37,2013-11-01 09:34:00,
2013-11-01 04:45:00,48.9,37.7,26.96,NW,315,8.1,8.1,65,0.00,CLR,,0.00,WeatherDisplay:10.37,2013-11-01 09:45:00,
2013-11-01 04:59:00,48.4,37.5,26.96,North,0,5.8,5.8,66,0.00,CLR,,0.00,WeatherDisplay:10.37,2013-11-01 09:59:00,
2013-11-01 05:13:00,46.9,36.9,26.98,NW,315,5.8,5.8,68,0.00,CLR,,0.00,WeatherDisplay:10.37,2013-11-01 10:13:00,
2013-11-01 05:32:00,46.0,37.2,26.98,NW,315,4.6,4.6,71,0.00,CLR,,0.00,WeatherDisplay:10.37,2013-11-01 10:32:00,
2013-11-01 05:56:00,44.4,36.6,26.98,SW,225,3.5,3.5,74,0.00,CLR,,0.00,WeatherDisplay:10.37,2013-11-01 10:56:00,
2013-11-01 06:14:00,43.0,35.9,26.99,NW,315,4.6,4.6,76,0.00,CLR,,0.00,WeatherDisplay:10.37,2013-11-01 11:14:00,
2013-11-01 06:29:00,42.4,36.7,27.00,NW,315,4.6,4.6,80,0.00,CLR,,0.00,WeatherDisplay:10.37,2013-11-01 11:29:00,
2013-11-01 06:35:00,42.4,36.7,27.00,SE,135,3.5,3.5,80,0.00,CLR,,0.00,WeatherDisplay:10.37,2013-11-01 11:35:00,
2013-11-01 06:42:00,42.3,36.2,27.00,West,270,4.6,4.6,79,0.00,CLR,,0.00,WeatherDisplay:10.37,2013-11-01 11:42:00,
2013-11-01 06:57:00,41.5,35.8,27.02,NW,315,3.5,3.5,80,0.00,CLR,,0.00,WeatherDisplay:10.37,2013-11-01 11:57:00,
2013-11-01 07:02:00,41.4,35.7,27.02,North,0,2.3,2.3,80,0.00,CLR,,0.00,WeatherDisplay:10.37,2013-11-01 12:02:00,
2013-11-01 07:11:00,40.8,35.7,27.03,NW,315,2.3,2.3,82,0.00,CLR,,0.00,WeatherDisplay:10.37,2013-11-01 12:11:00,
2013-11-01 07:18:00,40.5,35.4,27.03,NW,315,4.6,4.6,82,0.00,CLR,,0.00,WeatherDisplay:10.37,2013-11-01 12:18:00,
2013-11-01 07:26:00,40.3,34.9,27.03,NW,315,3.5,3.5,81,0.00,CLR,,0.00,WeatherDisplay:10.37,2013-11-01 12:26:00,
2013-11-01 07:35:00,41.4,35.0,27.03,NW,315,8.1,8.1,78,0.00,CLR,,0.00,WeatherDisplay:10.37,2013-11-01 12:35:00,
2013-11-01 08:02:00,42.1,34.7,27.05,NW,315,5.8,5.8,75,0.00,CLR,,0.00,WeatherDisplay:10.37,2013-11-01 13:02:00,
2013-11-01 08:29:00,42.1,34.7,27.07,NW,315,9.2,9.2,75,0.00,CLR,,0.00,WeatherDisplay:10.37,2013-11-01 13:29:00,
2013-11-01 08:36:00,41.9,34.9,27.07,NW,315,6.9,6.9,76,0.00,CLR,,0.00,WeatherDisplay:10.37,2013-11-01 13:36:00,
2013-11-01 08:49:00,41.7,34.7,27.08,NW,315,5.8,5.8,76,0.00,CLR,,0.00,WeatherDisplay:10.37,2013-11-01 13:49:00,
2013-11-01 08:55:00,41.9,34.9,27.08,NNW,338,9.2,9.2,76,0.00,CLR,,0.00,WeatherDisplay:10.37,2013-11-01 13:55:00,
2013-11-01 09:10:00,42.1,35.1,27.22,NW,310,6.0,8.0,76,0.00,CLR,CLR,0.00,WeatherDisplay:10.37,2013-11-01 14:10:00,
2013-11-01 09:16:00,42.3,34.9,27.10,West,270,9.2,9.2,75,0.00,CLR,,0.00,WeatherDisplay:10.37,2013-11-01 14:16:00,
2013-11-01 09:24:00,42.6,35.2,27.11,West,270,8.1,8.1,75,0.00,CLR,,0.00,WeatherDisplay:10.37,2013-11-01 14:24:00,
2013-11-01 09:41:00,43.9,35.4,27.11,NW,315,10.4,10.4,72,0.00,CLR,,0.00,WeatherDisplay:10.37,2013-11-01 14:41:00,
2013-11-01 09:46:00,44.6,35.1,27.11,WNW,292,10.4,10.4,69,0.00,CLR,,0.00,WeatherDisplay:10.37,2013-11-01 14:46:00,
2013-11-01 10:04:00,46.2,35.5,27.12,NW,315,8.1,8.1,66,0.00,CLR,,0.00,WeatherDisplay:10.37,2013-11-01 15:04:00,
2013-11-01 10:15:00,47.1,36.0,27.22,NW,314,6.0,12.0,65,0.00,CLR,CLR,0.00,WeatherDisplay:10.37,2013-11-01 15:15:00,
2013-11-01 10:26:00,48.4,36.0,27.13,NW,315,13.7,13.7,62,0.00,CLR,,0.00,WeatherDisplay:10.37,2013-11-01 15:26:00,
2013-11-01 10:32:00,48.6,35.3,27.12,North,0,13.8,13.8,60,0.00,CLR,,0.00,WeatherDisplay:10.37,2013-11-01 15:32:00,
2013-11-01 10:38:00,49.1,35.4,27.13,NW,315,10.4,10.4,59,0.00,CLR,,0.00,WeatherDisplay:10.37,2013-11-01 15:38:00,
2013-11-01 10:46:00,49.8,35.6,27.13,North,0,12.7,12.7,58,0.00,CLR,,0.00,WeatherDisplay:10.37,2013-11-01 15:46:00,
2013-11-01 10:57:00,50.5,35.0,27.13,North,0,11.5,11.5,55,0.00,CLR,,0.00,WeatherDisplay:10.37,2013-11-01 15:57:00,
2013-11-01 11:09:00,51.4,34.9,27.12,NW,315,10.4,10.4,53,0.00,CLR,,0.00,WeatherDisplay:10.37,2013-11-01 16:09:00,
2013-11-01 11:18:00,51.8,34.7,27.12,NW,315,10.4,10.4,52,0.00,CLR,,0.00,WeatherDisplay:10.37,2013-11-01 16:18:00,
2013-11-01 11:35:00,52.9,34.2,27.13,NW,315,12.7,12.7,49,0.00,CLR,,0.00,WeatherDisplay:10.37,2013-11-01 16:35:00,
2013-11-01 11:43:00,53.2,34.6,27.13,NW,315,10.4,10.4,49,0.00,CLR,,0.00,WeatherDisplay:10.37,2013-11-01 16:43:00,
2013-11-01 11:50:00,53.4,33.7,27.13,NW,315,13.8,13.8,47,0.00,CLR,,0.00,WeatherDisplay:10.37,2013-11-01 16:50:00,
2013-11-01 11:55:00,54.0,32.5,27.14,NW,315,13.8,13.8,44,0.00,CLR,,0.00,WeatherDisplay:10.37,2013-11-01 16:55:00,
2013-11-01 12:07:00,54.3,32.8,27.13,NW,315,10.4,10.4,44,0.00,CLR,,0.00,WeatherDisplay:10.37,2013-11-01 17:07:00,
2013-11-01 12:12:00,54.5,33.0,27.13,North,0,16.1,16.1,44,0.00,CLR,,0.00,WeatherDisplay:10.37,2013-11-01 17:12:00,
2013-11-01 12:22:00,55.0,32.9,27.13,WNW,292,12.7,12.7,43,0.00,CLR,,0.00,WeatherDisplay:10.37,2013-11-01 17:22:00,
2013-11-01 12:27:00,55.4,33.8,27.13,North,0,8.1,8.1,44,0.00,CLR,,0.00,WeatherDisplay:10.37,2013-11-01 17:27:00,
2013-11-01 12:37:00,55.9,31.3,27.13,NW,315,12.7,12.7,39,0.00,CLR,,0.00,WeatherDisplay:10.37,2013-11-01 17:37:00,
2013-11-01 12:45:00,55.9,30.7,27.13,NW,315,10.4,10.4,38,0.00,CLR,,0.00,WeatherDisplay:10.37,2013-11-01 17:45:00,
2013-11-01 13:04:00,56.1,29.5,27.12,WNW,292,11.5,11.5,36,0.00,CLR,,0.00,WeatherDisplay:10.37,2013-11-01 18:04:00,
2013-11-01 13:11:00,56.7,30.0,27.12,WNW,292,17.3,17.3,36,0.00,CLR,,0.00,WeatherDisplay:10.37,2013-11-01 18:11:00,
2013-11-01 13:30:00,56.8,30.1,27.12,North,0,12.7,12.7,36,0.00,CLR,,0.00,WeatherDisplay:10.37,2013-11-01 18:30:00,
2013-11-01 13:38:00,57.0,29.6,27.12,NW,315,13.8,13.8,35,0.00,CLR,,0.00,WeatherDisplay:10.37,2013-11-01 18:38:00,
2013-11-01 13:43:00,57.4,29.2,27.13,NW,315,9.2,10.7,34,0.00,CLR,,0.00,WeatherDisplay:10.37,2013-11-01 18:43:00,
2013-11-01 13:48:00,57.7,29.5,27.12,NW,315,14.5,14.5,34,0.00,CLR,,0.00,WeatherDisplay:10.37,2013-11-01 18:48:00,
2013-11-01 13:57:00,57.7,28.8,27.12,North,0,19.6,19.6,33,0.00,CLR,,0.00,WeatherDisplay:10.37,2013-11-01 18:57:00,
2013-11-01 14:05:00,57.7,26.5,27.12,NW,315,12.7,12.7,30,0.00,CLR,,0.00,WeatherDisplay:10.37,2013-11-01 19:05:00,
2013-11-01 14:11:00,57.7,25.7,27.12,NW,315,17.3,17.3,29,0.00,CLR,,0.00,WeatherDisplay:10.37,2013-11-01 19:11:00,
2013-11-01 14:22:00,57.0,25.9,27.12,NW,315,19.6,19.6,30,0.00,CLR,,0.00,WeatherDisplay:10.37,2013-11-01 19:22:00,
2013-11-01 14:29:00,57.7,25.7,27.12,NW,315,12.7,12.7,29,0.00,CLR,,0.00,WeatherDisplay:10.37,2013-11-01 19:29:00,
2013-11-01 14:42:00,57.6,22.9,27.12,NW,315,15.0,15.0,26,0.00,CLR,,0.00,WeatherDisplay:10.37,2013-11-01 19:42:00,
2013-11-01 14:57:00,57.7,22.1,27.12,NW,315,16.1,16.1,25,0.00,CLR,,0.00,WeatherDisplay:10.37,2013-11-01 19:57:00,
2013-11-01 15:06:00,57.2,21.6,27.13,NW,315,12.7,12.7,25,0.00,CLR,,0.00,WeatherDisplay:10.37,2013-11-01 20:06:00,
2013-11-01 15:17:00,57.4,22.7,27.13,NW,315,10.4,10.4,26,0.00,CLR,,0.00,WeatherDisplay:10.37,2013-11-01 20:17:00,
2013-11-01 15:24:00,56.8,23.2,27.13,NW,315,19.6,19.6,27,0.00,CLR,,0.00,WeatherDisplay:10.37,2013-11-01 20:24:00,
2013-11-01 15:30:00,56.0,21.5,27.22,NW,318,7.0,16.0,26,0.00,CLR,CLR,0.00,WeatherDisplay:10.37,2013-11-01 20:30:00,
2013-11-01 15:44:00,56.7,23.0,27.13,North,0,17.3,17.3,27,0.00,CLR,,0.00,WeatherDisplay:10.37,2013-11-01 20:44:00,
2013-11-01 15:59:00,56.3,22.7,27.13,NW,315,15.0,15.0,27,0.00,CLR,,0.00,WeatherDisplay:10.37,2013-11-01 20:59:00,
2013-11-01 16:13:00,56.5,22.9,27.14,NW,315,18.4,18.4,27,0.00,CLR,,0.00,WeatherDisplay:10.37,2013-11-01 21:13:00,
2013-11-01 16:27:00,57.2,20.7,27.13,North,0,11.5,11.5,24,0.00,CLR,,0.00,WeatherDisplay:10.37,2013-11-01 21:27:00,
2013-11-01 16:33:00,58.1,21.4,27.14,NW,315,19.6,19.6,24,0.00,CLR,,0.00,WeatherDisplay:10.37,2013-11-01 21:33:00,
2013-11-01 16:40:00,58.1,21.4,27.22,NW,316,9.0,20.0,24,0.00,CLR,CLR,0.00,WeatherDisplay:10.37,2013-11-01 21:40:00,
2013-11-01 16:55:00,57.6,21.0,27.22,NW,325,12.0,21.0,24,0.00,CLR,CLR,0.00,WeatherDisplay:10.37,2013-11-01 21:55:00,
2013-11-01 17:02:00,57.0,21.5,27.14,NW,315,20.7,20.7,25,0.00,CLR,,0.00,WeatherDisplay:10.37,2013-11-01 22:02:00,
2013-11-01 17:07:00,57.0,21.5,27.15,NW,315,20.7,20.7,25,0.00,CLR,,0.00,WeatherDisplay:10.37,2013-11-01 22:07:00,
2013-11-01 17:16:00,55.6,21.2,27.15,NW,315,16.1,16.1,26,0.00,CLR,,0.00,WeatherDisplay:10.37,2013-11-01 22:16:00,
2013-11-01 17:25:00,56.3,20.9,27.15,NW,315,13.8,13.8,25,0.00,CLR,,0.00,WeatherDisplay:10.37,2013-11-01 22:25:00,
2013-11-01 17:31:00,55.9,20.6,27.16,NW,315,15.0,15.0,25,0.00,CLR,,0.00,WeatherDisplay:10.37,2013-11-01 22:31:00,
2013-11-01 17:41:00,55.2,18.0,27.17,West,270,13.8,13.8,23,0.00,CLR,,0.00,WeatherDisplay:10.37,2013-11-01 22:41:00,
2013-11-01 17:56:00,54.7,17.6,27.17,North,0,18.4,18.4,23,0.00,CLR,,0.00,WeatherDisplay:10.37,2013-11-01 22:56:00,
2013-11-01 18:10:00,54.3,17.3,27.22,NW,324,8.0,17.0,23,0.00,CLR,CLR,0.00,WeatherDisplay:10.37,2013-11-01 23:10:00,
2013-11-01 18:18:00,54.1,18.1,27.17,WNW,292,11.5,11.5,24,0.00,CLR,,0.00,WeatherDisplay:10.37,2013-11-01 23:18:00,
2013-11-01 18:30:00,53.6,16.6,27.18,NW,315,11.5,11.5,23,0.00,CLR,,0.00,WeatherDisplay:10.37,2013-11-01 23:30:00,
2013-11-01 18:37:00,53.2,18.3,27.18,NW,315,10.4,10.4,25,0.00,CLR,,0.00,WeatherDisplay:10.37,2013-11-01 23:37:00,
2013-11-01 18:45:00,52.9,18.0,27.18,NW,315,5.0,8.0,25,0.00,CLR,CLR,0.00,WeatherDisplay:10.37,2013-11-01 23:45:00,
2013-11-01 18:50:00,52.7,17.8,27.18,NW,318,5.0,10.0,25,0.00,CLR,CLR,0.00,WeatherDisplay:10.37,2013-11-01 23:50:00,
2013-11-01 18:59:00,52.0,18.1,27.19,NW,315,8.1,8.1,26,0.00,CLR,,0.00,WeatherDisplay:10.37,2013-11-01 23:59:00,
2013-11-01 19:07:00,51.8,18.0,27.19,NNW,338,5.8,5.8,26,0.00,CLR,,0.00,WeatherDisplay:10.37,2013-11-02 00:07:00,
2013-11-01 19:34:00,50.2,18.3,27.21,NW,315,6.9,6.9,28,0.00,CLR,,0.00,WeatherDisplay:10.37,2013-11-02 00:34:00,
2013-11-01 19:40:00,50.0,18.1,27.21,WNW,292,9.2,9.2,28,0.00,CLR,,0.00,WeatherDisplay:10.37,2013-11-02 00:40:00,
2013-11-01 19:50:00,49.6,18.6,27.21,NW,315,8.1,8.1,29,0.00,CLR,,0.00,WeatherDisplay:10.37,2013-11-02 00:50:00,
2013-11-01 19:57:00,49.5,19.3,27.22,NW,315,5.8,5.8,30,0.00,CLR,,0.00,WeatherDisplay:10.37,2013-11-02 00:57:00,
2013-11-01 20:21:00,47.8,20.1,27.22,NNW,338,4.6,4.6,33,0.00,CLR,,0.00,WeatherDisplay:10.37,2013-11-02 01:21:00,
2013-11-01 20:30:00,47.1,20.8,27.23,NW,315,3.5,3.5,35,0.00,CLR,,0.00,WeatherDisplay:10.37,2013-11-02 01:30:00,
2013-11-01 20:37:00,46.8,20.5,27.23,NW,315,5.4,5.4,35,0.00,CLR,,0.00,WeatherDisplay:10.37,2013-11-02 01:37:00,
2013-11-01 20:43:00,46.2,20.0,27.23,NW,315,3.8,3.8,35,0.00,CLR,,0.00,WeatherDisplay:10.37,2013-11-02 01:43:00,
2013-11-01 20:56:00,45.5,20.7,27.23,NW,315,3.5,3.5,37,0.00,CLR,,0.00,WeatherDisplay:10.37,2013-11-02 01:56:00,
2013-11-01 21:03:00,45.5,20.7,27.23,NW,315,3.5,3.5,37,0.00,CLR,,0.00,WeatherDisplay:10.37,2013-11-02 02:03:00,
2013-11-01 21:13:00,45.0,21.5,27.24,NW,315,4.6,4.6,39,0.00,CLR,,0.00,WeatherDisplay:10.37,2013-11-02 02:13:00,
2013-11-01 21:20:00,44.6,21.7,27.24,NW,322,2.0,5.0,40,0.00,CLR,CLR,0.00,WeatherDisplay:10.37,2013-11-02 02:20:00,
2013-11-01 21:40:00,43.0,21.4,27.24,WNW,292,3.5,3.5,42,0.00,CLR,,0.00,WeatherDisplay:10.37,2013-11-02 02:40:00,
2013-11-01 21:48:00,41.9,21.5,27.25,North,0,0.0,0.0,44,0.00,CLR,,0.00,WeatherDisplay:10.37,2013-11-02 02:48:00,
2013-11-01 21:56:00,41.2,21.4,27.25,South,180,0.0,0.0,45,0.00,CLR,,0.00,WeatherDisplay:10.37,2013-11-02 02:56:00,
2013-11-01 22:08:00,40.3,21.6,27.26,NW,315,0.0,0.0,47,0.00,CLR,,0.00,WeatherDisplay:10.37,2013-11-02 03:08:00,
2013-11-01 22:17:00,39.9,21.8,27.26,NW,315,2.3,2.3,48,0.00,CLR,,0.00,WeatherDisplay:10.37,2013-11-02 03:17:00,
2013-11-01 22:25:00,39.7,21.6,27.26,NW,315,1.2,0.0,48,0.00,CLR,,0.00,WeatherDisplay:10.37,2013-11-02 03:25:00,
2013-11-01 22:36:00,39.4,21.8,27.27,NW,315,1.2,1.2,49,0.00,CLR,,0.00,WeatherDisplay:10.37,2013-11-02 03:36:00,
2013-11-01 22:45:00,38.8,21.8,27.27,NW,315,0.0,2.0,50,0.00,CLR,CLR,0.00,WeatherDisplay:10.37,2013-11-02 03:45:00,
2013-11-01 22:51:00,38.1,21.6,27.27,NW,315,2.3,2.3,51,0.00,CLR,,0.00,WeatherDisplay:10.37,2013-11-02 03:51:00,
2013-11-01 23:08:00,37.0,19.6,27.27,NW,315,3.5,3.5,49,0.00,CLR,,0.00,WeatherDisplay:10.37,2013-11-02 04:08:00,
2013-11-01 23:10:00,37.0,19.6,27.27,WNW,292,2.3,2.3,49,0.00,CLR,,0.00,WeatherDisplay:10.37,2013-11-02 04:10:00,
2013-11-01 23:24:00,35.8,19.4,27.28,NW,315,2.3,2.3,51,0.00,CLR,,0.00,WeatherDisplay:10.37,2013-11-02 04:24:00,
2013-11-01 23:30:00,35.6,19.2,27.28,NW,315,1.2,0.0,51,0.00,CLR,,0.00,WeatherDisplay:10.37,2013-11-02 04:30:00,
2013-11-01 23:44:00,35.2,19.8,27.27,NW,315,1.2,1.2,53,0.00,CLR,,0.00,WeatherDisplay:10.37,2013-11-02 04:44:00,